| time (UTC) | temp F | wind direction | speed MPH | gust MPH | rain 1hr in | rain 24hr in | rain mn in | humidity % | barometer mb |
| 20260510174603 | 57 | 356 | 1.0 | 9.0 | 0.00 | 0.00 | 0.00 | 32 | 1009.5 |
| 20260510173056 | 59 | 359 | 3.0 | 6.0 | 0.00 | 0.00 | 0.00 | 31 | 1009.3 |
| 20260510171550 | 59 | 354 | 5.0 | 8.0 | 0.00 | 0.00 | 0.00 | 33 | 1009.1 |
| 20260510170049 | 58 | 1 | 0.0 | 3.0 | 0.00 | 0.00 | 0.00 | 38 | 1009.1 |
| 20260510164554 | 56 | 141 | 1.0 | 5.0 | 0.00 | 0.00 | 0.00 | 39 | 1009.0 |
| 20260510163046 | 58 | 19 | 3.0 | 6.0 | 0.00 | 0.00 | 0.00 | 35 | 1008.7 |
| 20260510161541 | 58 | 23 | 2.0 | 11.0 | 0.00 | 0.00 | 0.00 | 35 | 1008.2 |
| 20260510160040 | 59 | 77 | 2.0 | 8.0 | 0.00 | 0.00 | 0.00 | 34 | 1008.1 |
| 20260510154541 | 59 | 86 | 2.0 | 14.0 | 0.00 | 0.00 | 0.00 | 36 | 1008.1 |
| 20260510153037 | 59 | 115 | 3.0 | 8.0 | 0.00 | 0.00 | 0.00 | 33 | 1008.1 |
| 20260510151541 | 59 | 106 | 2.0 | 9.0 | 0.00 | 0.00 | 0.00 | 32 | 1007.9 |
| 20260510150039 | 58 | 68 | 2.0 | 5.0 | 0.00 | 0.00 | 0.00 | 31 | 1008.0 |
| 20260510144546 | 58 | 41 | 2.0 | 7.0 | 0.00 | 0.00 | 0.00 | 30 | 1007.8 |
| 20260510143032 | 59 | 49 | 1.0 | 5.0 | 0.00 | 0.00 | 0.00 | 28 | 1007.4 |
| 20260510141528 | 56 | 8 | 0.0 | 1.0 | 0.00 | 0.00 | 0.00 | 34 | 1007.7 |
| 20260510140026 | 53 | 51 | 0.0 | 7.0 | 0.00 | 0.00 | 0.00 | 35 | 1007.5 |
| 20260510134526 | 54 | 84 | 0.0 | 3.0 | 0.00 | 0.00 | 0.00 | 32 | 1007.5 |
| 20260510133022 | 53 | 93 | 0.0 | 0.0 | 0.00 | 0.00 | 0.00 | 34 | 1007.8 |
| 20260510131520 | 52 | 93 | 0.0 | 5.0 | 0.00 | 0.00 | 0.00 | 31 | 1007.5 |
| 20260510130022 | 52 | 342 | 0.0 | 0.0 | 0.00 | 0.00 | 0.00 | 30 | 1007.0 |
| 20260510124516 | 52 | 18 | 0.0 | 5.0 | 0.00 | 0.00 | 0.00 | 30 | 1006.9 |
| 20260510123016 | 50 | 37 | 0.0 | 2.0 | 0.00 | 0.00 | 0.00 | 31 | 1006.9 |
| 20260510121513 | 47 | 2 | 0.0 | 0.0 | 0.00 | 0.00 | 0.00 | 34 | 1006.7 |
| 20260510120010 | 47 | 290 | 0.0 | 0.0 | 0.00 | 0.00 | 0.00 | 35 | 1006.5 |
| 20260510114506 | 49 | 320 | 0.0 | 0.0 | 0.00 | 0.00 | 0.00 | 34 | 1006.6 |
| 20260510113002 | 50 | 320 | 0.0 | 1.0 | 0.00 | 0.00 | 0.00 | 33 | 1006.4 |
| 20260510111609 | 51 | 320 | 0.0 | 5.0 | 0.00 | 0.00 | 0.00 | 32 | 1006.3 |
| 20260510110057 | 51 | 332 | 3.0 | 5.0 | 0.00 | 0.00 | 0.00 | 32 | 1006.3 |
| 20260510104610 | 52 | 352 | 3.0 | 8.0 | 0.00 | 0.00 | 0.00 | 32 | 1005.9 |
| 20260510103054 | 52 | 349 | 4.0 | 6.0 | 0.00 | 0.00 | 0.00 | 32 | 1005.8 |
| 20260510101559 | 52 | 354 | 4.0 | 6.0 | 0.00 | 0.00 | 0.00 | 33 | 1005.6 |
| 20260510100059 | 53 | 347 | 3.0 | 6.0 | 0.00 | 0.00 | 0.00 | 33 | 1005.7 |
| 20260510094555 | 53 | 351 | 2.0 | 4.0 | 0.00 | 0.00 | 0.00 | 33 | 1005.6 |
| 20260510093043 | 54 | 328 | 1.0 | 5.0 | 0.00 | 0.00 | 0.00 | 32 | 1005.4 |
| 20260510091542 | 54 | 353 | 3.0 | 10.0 | 0.00 | 0.00 | 0.00 | 32 | 1005.5 |
| 20260510090040 | 55 | 345 | 4.0 | 7.0 | 0.00 | 0.00 | 0.00 | 30 | 1005.3 |
| 20260510084539 | 55 | 333 | 2.0 | 5.0 | 0.00 | 0.00 | 0.00 | 29 | 1005.3 |
| 20260510083042 | 56 | 320 | 1.0 | 7.0 | 0.00 | 0.00 | 0.00 | 29 | 1005.2 |
| 20260510081536 | 55 | 330 | 3.0 | 8.0 | 0.00 | 0.00 | 0.00 | 29 | 1005.2 |
| 20260510080032 | 54 | 340 | 0.0 | 3.0 | 0.00 | 0.00 | 0.00 | 30 | 1005.3 |
| 20260510074537 | 55 | 360 | 1.0 | 5.0 | 0.00 | 0.00 | 0.00 | 29 | 1005.5 |
| 20260510073030 | 54 | 326 | 1.0 | 3.0 | 0.00 | 0.00 | 0.00 | 28 | 1005.6 |
| 20260510071528 | 54 | 345 | 0.0 | 3.0 | 0.00 | 0.00 | 0.00 | 27 | 1005.9 |
| 20260510070032 | 55 | 328 | 0.0 | 3.0 | 0.00 | 0.00 | 0.00 | 26 | 1006.0 |
| 20260510064524 | 54 | 327 | 2.0 | 4.0 | 0.00 | 0.00 | 0.00 | 27 | 1006.1 |
| 20260510063024 | 54 | 303 | 0.0 | 2.0 | 0.00 | 0.00 | 0.00 | 27 | 1006.1 |
| 20260510061520 | 55 | 263 | 0.0 | 3.0 | 0.00 | 0.00 | 0.00 | 25 | 1006.1 |
| 20260510060017 | 55 | 270 | 0.0 | 0.0 | 0.00 | 0.00 | 0.00 | 25 | 1006.4 |
| 20260510054516 | 55 | 221 | 0.0 | 4.0 | 0.00 | 0.00 | 0.00 | 25 | 1006.4 |
| 20260510053015 | 55 | 193 | 0.0 | 6.0 | 0.00 | 0.00 | 0.00 | 25 | 1006.4 |
| 20260510051516 | 55 | 229 | 1.0 | 8.0 | 0.00 | 0.00 | 0.00 | 25 | 1006.4 |
| 20260510050014 | 55 | 207 | 2.0 | 6.0 | 0.00 | 0.00 | 0.00 | 26 | 1006.6 |
| 20260510044514 | 55 | 158 | 3.0 | 10.0 | 0.00 | 0.00 | 0.00 | 26 | 1006.7 |
| 20260510043014 | 55 | 186 | 2.0 | 6.0 | 0.00 | 0.00 | 0.00 | 26 | 1006.7 |
| 20260510041512 | 54 | 194 | 0.0 | 5.0 | 0.00 | 0.00 | 0.00 | 26 | 1006.7 |
| 20260510040012 | 54 | 180 | 0.0 | 4.0 | 0.00 | 0.00 | 0.00 | 27 | 1006.7 |
| 20260510034511 | 55 | 193 | 0.0 | 5.0 | 0.00 | 0.00 | 0.00 | 27 | 1006.8 |
| 20260510033011 | 55 | 191 | 0.0 | 6.0 | 0.00 | 0.00 | 0.00 | 27 | 1006.7 |
| 20260510031511 | 55 | 201 | 0.0 | 3.0 | 0.00 | 0.00 | 0.00 | 27 | 1006.6 |
| 20260510030010 | 55 | 203 | 0.0 | 3.0 | 0.00 | 0.00 | 0.00 | 27 | 1006.5 |
| 20260510024515 | 55 | 191 | 0.0 | 1.0 | 0.00 | 0.00 | 0.00 | 27 | 1006.3 |
| 20260510023009 | 56 | 196 | 0.0 | 1.0 | 0.00 | 0.00 | 0.00 | 27 | 1006.1 |
| 20260510021509 | 56 | 199 | 0.0 | 1.0 | 0.00 | 0.00 | 0.00 | 26 | 1006.0 |
| 20260510020008 | 57 | 194 | 0.0 | 4.0 | 0.00 | 0.00 | 0.00 | 26 | 1005.9 |
| 20260510014510 | 58 | 226 | 0.0 | 1.0 | 0.00 | 0.00 | 0.00 | 25 | 1005.8 |
| 20260510013006 | 60 | 283 | 0.0 | 8.0 | 0.00 | 0.00 | 0.00 | 24 | 1005.7 |
| 20260510011506 | 61 | 325 | 2.0 | 9.0 | 0.00 | 0.00 | 0.00 | 24 | 1005.6 |
| 20260510010005 | 61 | 274 | 2.0 | 13.0 | 0.00 | 0.00 | 0.00 | 23 | 1005.5 |
| 20260510004506 | 62 | 3 | 4.0 | 12.0 | 0.00 | 0.00 | 0.00 | 22 | 1005.6 |
| 20260510003004 | 62 | 285 | 3.0 | 10.0 | 0.00 | 0.00 | 0.00 | 22 | 1005.6 |
| 20260510001505 | 63 | 333 | 2.0 | 15.0 | 0.00 | 0.00 | 0.00 | 22 | 1005.6 |
| 20260510000000 | 63 | 281 | 2.0 | 10.0 | 0.00 | 0.00 | 0.00 | 23 | 1005.5 |
| 20260509234611 | 63 | 269 | 3.0 | 9.0 | 0.00 | 0.00 | 0.00 | 23 | 1005.7 |
| 20260509233059 | 65 | 281 | 3.0 | 10.0 | 0.00 | 0.00 | 0.00 | 22 | 1005.7 |
| 20260509231558 | 65 | 334 | 2.0 | 7.0 | 0.00 | 0.00 | 0.00 | 22 | 1005.8 |
| 20260509230056 | 66 | 300 | 3.0 | 9.0 | 0.00 | 0.00 | 0.00 | 21 | 1005.9 |
| 20260509224553 | 64 | 359 | 3.0 | 13.0 | 0.00 | 0.00 | 0.00 | 22 | 1005.9 |
| 20260509223057 | 64 | 347 | 6.0 | 16.0 | 0.00 | 0.00 | 0.00 | 21 | 1006.3 |
| 20260509221551 | 65 | 312 | 7.0 | 15.0 | 0.00 | 0.00 | 0.00 | 21 | 1006.3 |
| 20260509220059 | 66 | 253 | 5.0 | 11.0 | 0.00 | 0.00 | 0.00 | 21 | 1006.7 |
| 20260509214547 | 66 | 299 | 4.0 | 10.0 | 0.00 | 0.00 | 0.00 | 22 | 1006.9 |
| 20260509213043 | 66 | 277 | 4.0 | 12.0 | 0.00 | 0.00 | 0.00 | 21 | 1007.0 |
| 20260509211544 | 67 | 263 | 3.0 | 10.0 | 0.00 | 0.00 | 0.00 | 21 | 1007.6 |
| 20260509210037 | 65 | 296 | 7.0 | 15.0 | 0.00 | 0.00 | 0.00 | 22 | 1007.8 |
| 20260509204544 | 65 | 261 | 4.0 | 13.0 | 0.00 | 0.00 | 0.00 | 22 | 1008.1 |
| 20260509203037 | 66 | 359 | 4.0 | 13.0 | 0.00 | 0.00 | 0.00 | 20 | 1008.1 |
| 20260509201534 | 65 | 232 | 5.0 | 13.0 | 0.00 | 0.00 | 0.00 | 22 | 1008.2 |
| 20260509200039 | 65 | 293 | 5.0 | 11.0 | 0.00 | 0.00 | 0.00 | 22 | 1008.3 |
| 20260509194540 | 64 | 279 | 5.0 | 16.0 | 0.00 | 0.00 | 0.00 | 23 | 1008.4 |
| 20260509193040 | 64 | 307 | 5.0 | 13.0 | 0.00 | 0.00 | 0.00 | 20 | 1008.5 |
| 20260509191531 | 66 | 359 | 6.0 | 14.0 | 0.00 | 0.00 | 0.00 | 21 | 1008.5 |
| 20260509190029 | 65 | 314 | 3.0 | 15.0 | 0.00 | 0.00 | 0.00 | 21 | 1008.7 |
| 20260509184533 | 65 | 266 | 3.0 | 14.0 | 0.00 | 0.00 | 0.00 | 22 | 1008.8 |
| 20260509183030 | 64 | 294 | 3.0 | 16.0 | 0.00 | 0.00 | 0.00 | 23 | 1008.9 |
| 20260509181526 | 65 | 278 | 2.0 | 9.0 | 0.00 | 0.00 | 0.00 | 23 | 1009.2 |
| 20260509180025 | 64 | 261 | 5.0 | 11.0 | 0.00 | 0.00 | 0.00 | 20 | 1009.3 |